Time;durP1;ratioP1;P1;durP2;ratioP2;P2;SDS_P1;SDS_P2;PMS_P1;PMS_P2;Temp;Humidity;BMP_temperature;BMP_pressure;BME280_temperature;BME280_humidity;BME280_pressure;Samples;Min_cycle;Max_cycle;Signal;HPM_P1;HPM_P2
2021/03/02 05:01:16;;;;;;;22.73;14.68;;;;;;;3.65;65.43;95867.83;827205;71;31784;-77
2021/03/02 05:16:15;;;;;;;24.10;16.50;;;;;;;3.61;65.77;95875.74;833916;71;31750;-79
2021/03/02 05:31:16;;;;;;;20.15;14.15;;;;;;;3.85;65.34;95891.55;833786;71;31772;-77
2021/03/02 05:46:16;;;;;;;19.50;13.43;;;;;;;5.26;62.29;95891.84;827331;71;31745;-76
2021/03/02 06:01:09;;;;;;;27.13;17.45;;;;;;;7.45;57.31;95895.84;828201;71;29297;-76
2021/03/02 06:16:14;;;;;;;31.10;21.35;;;;;;;8.91;51.75;95898.20;827827;71;31410;-79
2021/03/02 06:31:10;;;;;;;30.70;19.37;;;;;;;10.32;49.70;95895.27;828064;71;28672;-77
2021/03/02 06:46:32;;;;;;;31.82;24.60;;;;;;;11.47;46.12;95899.56;833204;71;32249;-77
2021/03/02 07:01:14;;;;;;;33.83;23.50;;;;;;;12.65;43.41;95910.25;827512;71;31800;-75
2021/03/02 07:16:20;;;;;;;30.05;22.45;;;;;;;12.77;42.68;95890.50;827155;71;32841;-78
2021/03/02 07:31:17;;;;;;;32.33;23.12;;;;;;;13.06;41.77;95889.90;827114;71;32884;-75
2021/03/02 07:46:26;;;;;;;36.13;24.07;;;;;;;14.32;40.76;95891.34;828142;71;28739;-74
2021/03/02 08:01:23;;;;;;;33.23;24.75;;;;;;;14.95;37.98;95876.54;827457;71;32682;-75
2021/03/02 08:16:16;;;;;;;33.58;26.48;;;;;;;16.08;36.58;95873.27;827403;71;32773;-79
2021/03/02 08:31:13;;;;;;;25.35;20.65;;;;;;;17.39;35.04;95873.09;828145;71;30618;-77
2021/03/02 08:46:23;;;;;;;33.18;26.20;;;;;;;17.92;32.69;95855.80;827238;71;33177;-76
2021/03/02 09:01:33;;;;;;;22.52;16.35;;;;;;;18.35;31.26;95843.91;828739;71;32487;-77
2021/03/02 09:16:37;;;;;;;10.50;9.23;;;;;;;18.99;28.83;95848.95;823190;70;29712;-77
2021/03/02 09:31:09;;;;;;;10.88;9.78;;;;;;;18.68;28.43;95842.30;827888;71;30268;-76
2021/03/02 09:46:14;;;;;;;8.38;7.58;;;;;;;19.46;27.34;95832.47;827987;71;32437;-78
2021/03/02 10:01:09;;;;;;;7.97;7.17;;;;;;;20.14;27.33;95828.84;828096;71;30495;-77
2021/03/02 10:16:17;;;;;;;7.40;6.70;;;;;;;20.60;26.46;95823.38;828150;71;29686;-78
2021/03/02 10:31:18;;;;;;;8.35;7.37;;;;;;;21.34;30.15;95767.33;834983;71;33047;-80
2021/03/02 10:46:08;;;;;;;9.38;8.43;;;;;;;20.97;25.82;95785.77;829316;71;29723;-79
2021/03/02 11:01:08;;;;;;;6.80;6.20;;;;;;;21.54;25.18;95759.69;833989;71;29367;-77
2021/03/02 11:16:08;;;;;;;8.80;6.80;;;;;;;21.28;24.64;95741.92;828077;71;29805;-77
2021/03/02 11:31:10;;;;;;;7.72;6.92;;;;;;;21.02;24.75;95712.73;828128;71;30244;-76
2021/03/02 11:46:09;;;;;;;7.65;6.85;;;;;;;20.94;25.16;95701.01;828156;71;29751;-75
2021/03/02 12:01:13;;;;;;;8.83;8.03;;;;;;;20.63;25.20;95664.02;828165;71;33102;-76
2021/03/02 12:16:09;;;;;;;6.92;6.25;;;;;;;20.09;25.82;95652.55;828095;71;30791;-76
2021/03/02 12:31:12;;;;;;;8.38;7.50;;;;;;;19.51;26.33;95628.11;833737;71;32025;-78
2021/03/02 12:46:13;;;;;;;9.98;7.80;;;;;;;18.90;27.28;95608.77;828048;71;31490;-75
2021/03/02 13:01:08;;;;;;;9.48;8.23;;;;;;;18.38;27.98;95591.61;833867;71;29692;-78
2021/03/02 13:16:16;;;;;;;11.35;8.50;;;;;;;17.80;28.75;95580.19;833895;71;32549;-79
2021/03/02 13:31:11;;;;;;;10.70;8.73;;;;;;;17.22;29.83;95584.56;818313;71;30321;-77
2021/03/02 13:46:17;;;;;;;10.55;8.98;;;;;;;16.52;30.81;95582.42;827603;71;32676;-76
2021/03/02 14:01:16;;;;;;;11.30;9.80;;;;;;;16.47;31.72;95581.23;821484;70;33252;-80
2021/03/02 14:16:19;;;;;;;13.05;9.83;;;;;;;15.35;32.55;95551.86;833698;71;32760;-77
2021/03/02 14:31:15;;;;;;;14.43;9.68;;;;;;;14.92;33.26;95573.16;821138;71;32774;-76
2021/03/02 14:46:18;;;;;;;13.72;9.83;;;;;;;14.29;34.25;95554.48;828193;71;32092;-77
2021/03/02 15:01:28;;;;;;;14.50;11.53;;;;;;;13.81;35.75;95572.48;819184;71;30776;-78
2021/03/02 15:16:15;;;;;;;15.45;11.85;;;;;;;13.39;36.54;95574.74;828336;71;32792;-78
2021/03/02 15:31:29;;;;;;;19.77;12.30;;;;;;;13.03;37.07;95588.73;833655;71;32816;-78
2021/03/02 15:46:19;;;;;;;16.85;13.85;;;;;;;12.57;37.88;95596.42;833875;71;32749;-76
2021/03/02 16:01:09;;;;;;;15.30;12.63;;;;;;;12.07;38.65;95607.98;833961;71;29818;-77
2021/03/02 16:16:38;;;;;;;19.07;14.05;;;;;;;11.59;39.52;95624.11;787454;74;33001;-76
2021/03/02 17:31:36;;;;;;;24.25;17.40;;;;;;;9.64;43.56;95644.61;823360;71;32827;-81
